TAFOR
Diposting tanggal: 10 Juni 2019

Pukul : 00-12 UTC

Isi :
TAF WAGI 292300Z 3000/3012 31005KT 9999 SCT015 TEMPO 2905/2909 3000 RA BKN012CB=